RCTP Airport Information

Runway Information
Runway 05 Length 12008 ft width 197 ft
Elevation 73 ft Threshold 0 ft Heading 49
Runway 23 Length 12008 ft Width 197 ft
Elevation 62 ft Threshold 0 ft Heading 229
Runway 06 Length 10991 ft width 197 ft
Elevation 106 ft Threshold 0 ft Heading 49
Runway 24 Length 10991 ft Width 197 ft
Elevation 95 ft Threshold 0 ft Heading 229
Airport Frequencies
Type APP Name TAIPEI APP Frequency 119.6 MHZ
Type APP Name TAIPEI APP Frequency 123.5 MHZ
Type ATIS Name ATIS Frequency 127.6 MHZ
Type CLD Name CLNC DEL Frequency 121.8 MHZ
Type GND Name GND Frequency 121.7 MHZ
Type TWR Name TAIPEI TWR Frequency 118.7 MHZ
Airport Navaids
Type VOR-DME Name Chiang Kai Shek Frequency 114300 KHZ
Airport Weather Information & NOTAM
ADDS - METARS form results

(0308 UTC 07 July 2020)
Data provider http://aviationweather.gov/metar/data/
 
METAR text: RCTP 070300Z 24021KT 9999 FEW020 BKN180 34/27 Q1009 WS R23L NOSIG RMK A2982
Conditions at: RCTP (TAIPEI TAOYUAN , TW) observed 0300 UTC 07 July 2020
Temperature: 34.0°C (93°F)
Dewpoint: 27.0°C (81°F) [RH = 67%]
Pressure (altimeter): 29.79 inches Hg (1009.0 mb)
Winds: from the WSW (240 degrees) at 24 MPH (21 knots; 10.8 m/s)
Visibility: 6 or more miles (10+ km)
Ceiling: 18000 feet AGL
Clouds: few clouds at 2000 feet AGL
broken clouds at 18000 feet AGL
Weather: no significant weather observed at this time

METAR text: RCTP 070238Z 24020KT 9999 FEW020 BKN180 34/27 Q1009 WS R23L NOSIG RMK A2982
Conditions at: RCTP (TAIPEI TAOYUAN , TW) observed 0238 UTC 07 July 2020
Temperature: 34.0°C (93°F)
Dewpoint: 27.0°C (81°F) [RH = 67%]
Pressure (altimeter): 29.79 inches Hg (1009.0 mb)
Winds: from the WSW (240 degrees) at 23 MPH (20 knots; 10.3 m/s)
Visibility: 6 or more miles (10+ km)
Ceiling: 18000 feet AGL
Clouds: few clouds at 2000 feet AGL
broken clouds at 18000 feet AGL
Weather: no significant weather observed at this time

METAR text: RCTP 070230Z 25018KT 9999 FEW020 BKN180 34/26 Q1009 NOSIG RMK A2982
Conditions at: RCTP (TAIPEI TAOYUAN , TW) observed 0230 UTC 07 July 2020
Temperature: 34.0°C (93°F)
Dewpoint: 26.0°C (79°F) [RH = 63%]
Pressure (altimeter): 29.79 inches Hg (1009.0 mb)
Winds: from the WSW (250 degrees) at 21 MPH (18 knots; 9.3 m/s)
Visibility: 6 or more miles (10+ km)
Ceiling: 18000 feet AGL
Clouds: few clouds at 2000 feet AGL
broken clouds at 18000 feet AGL
Weather: no significant weather observed at this time

Forecast for: RCTP (TAIPEI TAOYUAN , TW)
Text: TAF RCTP 062300Z 0700/0806 24015KT 9999 FEW020 BKN200
Forecast period: 0000 to 1000 UTC 07 July 2020
Forecast type: FROM: standard forecast or significant change
Winds: from the WSW (240 degrees) at 17 MPH (15 knots; 7.7 m/s)
Visibility: 6 or more miles 10+ km)
Ceiling: 20000 feet AGL
Clouds: few clouds at 2000 feet AGL
broken clouds at 20000 feet AGL
Weather: no significant weather forecast for this period
Text: TEMPO 0702/0708 24020KT FEW015 BKN032
Forecast period: 0200 to 0800 UTC 07 July 2020
Forecast type: TEMPORARY: The following changes expected for less than half the time period
Winds: from the WSW (240 degrees) at 23 MPH (20 knots; 10.3 m/s)
Visibility: missing
Ceiling: 3200 feet AGL
Clouds: few clouds at 1500 feet AGL
broken clouds at 3200 feet AGL
Weather: no significant weather forecast for this period
Text: BECMG 0710/0712 22010KT
Forecast period: 1000 to 2200 UTC 07 July 2020
Forecast type: BECOMING: Conditions expected to become as follows by 1200 UTC 07 July 2020
Winds: from the SW (220 degrees) at 12 MPH (10 knots; 5.1 m/s)
Visibility: 6 or more miles 10+ km)
Ceiling: 20000 feet AGL
Clouds: few clouds at 2000 feet AGL
broken clouds at 20000 feet AGL
Weather: no significant weather forecast for this period
Text: TEMPO 0714/0720 20005KT
Forecast period: 1400 to 2000 UTC 07 July 2020
Forecast type: TEMPORARY: The following changes expected for less than half the time period
Winds: from the SSW (200 degrees) at 6 MPH (5 knots; 2.6 m/s)
Visibility: missing
Ceiling: unknown
Clouds: missing
Weather: no significant weather forecast for this period
Text: BECMG 0722/0724 24015KT
Forecast period: 2200 UTC 07 July 2020 to 0600 UTC 08 July 2020
Forecast type: BECOMING: Conditions expected to become as follows by 0000 UTC 08 July 2020
Winds: from the WSW (240 degrees) at 17 MPH (15 knots; 7.7 m/s)
Visibility: 6 or more miles 10+ km)
Ceiling: 20000 feet AGL
Clouds: few clouds at 2000 feet AGL
broken clouds at 20000 feet AGL
Weather: no significant weather forecast for this period